FNCT METAR and TAF | Updated Today

FNCT METAR

Catumbela Airport

Observation time: 61 min. ago

FNCT 080500Z 00000KT 9999 SCT020 BKN090 25/22 Q1012

Need help? Read our tutorial on how to read METARs or read the parsed version below.

Catumbela Airport (FNCT) METAR

  • Weather conditions on Wed, 08 Dec 2021 05:00:00 +0000 (61 min. ago):
  • Present conditions: Dry
  • Clouds: Scattered at 610 meters; broken sky at 2743 meters
  • Visibility: Greater than 10 km
  • Wind: Calm
  • Temperature: 25 celsius
  • Dew point: 22 celsius
  • Pressure: 1012 millibars
  • Remarks: None


Useful to know...

FNCT TAF

Catumbela Airport

TAF FNCT 072300Z 0800/0812 17007KT 9999 SCT015 TEMPO 0806/0811 11007KT
Observation time: 7:01 hr. ago
Need help? Read our tutorial on how to read TAFs or read the parsed version below.

Parsed version of TAF for Catumbela Airport (FNCT)

  • From 08 December at 00:00 UTC, to day 08 of the month at 12:00 UTC
  • Clouds: Scattered at 457 meters
  • Visibility: Greater than 10 km
  • Wind: 170 degrees at 7
  • Expected to arise temporarily, from 08 December at 06:00 UTC, to day 08 of the month at 11:00 UTC
  • Wind: 110 degrees at 7